createdAt,value
2018-04-13T00:01:16.184Z,14.30
2018-04-13T00:03:42.082Z,13.23
2018-04-13T00:06:07.969Z,15.63
2018-04-13T00:08:35.152Z,14.10
2018-04-13T00:11:01.022Z,13.15
2018-04-13T00:13:29.677Z,19.50
2018-04-13T00:15:55.522Z,17.00
2018-04-13T00:18:24.208Z,23.13
2018-04-13T00:20:50.116Z,13.88
2018-04-13T00:23:18.976Z,16.67
2018-04-13T00:25:44.850Z,19.75
2018-04-13T00:28:14.525Z,13.90
2018-04-13T00:30:40.393Z,17.48
2018-04-13T00:33:09.976Z,14.43
2018-04-13T00:35:35.850Z,15.18
2018-04-13T00:38:01.749Z,16.73
2018-04-13T00:40:27.615Z,15.23
2018-04-13T00:42:53.560Z,17.13
2018-04-13T00:45:21.080Z,20.30
2018-04-13T00:47:46.980Z,13.32
2018-04-13T00:50:18.429Z,12.77
2018-04-13T00:52:51.093Z,20.52
2018-04-13T00:55:16.971Z,16.45
2018-04-13T00:57:42.891Z,18.20
2018-04-13T01:00:08.793Z,16.90
2018-04-13T01:02:34.689Z,18.13
2018-04-13T01:07:53.838Z,15.93
2018-04-13T01:10:19.901Z,18.33
2018-04-13T01:12:45.885Z,19.77
2018-04-13T01:15:11.778Z,18.53
2018-04-13T01:17:37.638Z,13.73
2018-04-13T01:20:03.534Z,15.27
2018-04-13T01:22:29.382Z,24.37
2018-04-13T01:24:55.295Z,23.60
2018-04-13T01:27:21.213Z,15.00
2018-04-13T01:29:47.085Z,16.90
2018-04-13T01:32:12.961Z,15.30
2018-04-13T01:34:38.910Z,19.50
2018-04-13T01:37:04.823Z,25.37
2018-04-13T01:39:30.656Z,15.73
2018-04-13T01:41:56.549Z,17.40
2018-04-13T01:44:22.469Z,18.93
2018-04-13T01:46:48.437Z,18.60
2018-04-13T01:49:14.324Z,20.70
2018-04-13T01:51:40.182Z,21.40
2018-04-13T01:54:07.747Z,19.23
2018-04-13T01:56:33.669Z,19.00
2018-04-13T01:58:59.528Z,21.57
2018-04-13T02:01:25.977Z,22.60
2018-04-13T02:03:51.805Z,25.40
2018-04-13T02:06:17.651Z,15.80
2018-04-13T02:08:43.551Z,17.00
2018-04-13T02:11:09.402Z,21.10
2018-04-13T02:13:35.287Z,20.27
2018-04-13T02:16:01.138Z,17.97
2018-04-13T02:18:30.887Z,16.77
2018-04-13T02:20:56.843Z,16.17
2018-04-13T02:23:26.281Z,17.70
2018-04-13T02:25:52.152Z,18.23
2018-04-13T02:28:18.040Z,19.73
2018-04-13T02:30:43.934Z,19.97
2018-04-13T02:33:09.812Z,18.27
2018-04-13T02:35:36.782Z,18.50
2018-04-13T02:38:02.682Z,18.05
2018-04-13T02:40:31.915Z,22.17
2018-04-13T02:42:57.786Z,20.35
2018-04-13T02:45:25.849Z,27.53
2018-04-13T02:47:51.726Z,30.98
2018-04-13T02:50:21.158Z,21.57
2018-04-13T02:52:47.046Z,22.00
2018-04-13T02:55:15.169Z,25.23
2018-04-13T02:57:41.063Z,24.87
2018-04-13T03:00:09.728Z,23.47
2018-04-13T03:02:35.602Z,32.40
2018-04-13T03:05:01.470Z,28.60
2018-04-13T03:07:27.345Z,23.13
2018-04-13T03:10:08.205Z,27.37
2018-04-13T03:12:34.079Z,23.20
2018-04-13T03:14:59.970Z,29.07
2018-04-13T03:17:25.812Z,26.10
2018-04-13T03:19:51.682Z,24.23
2018-04-13T03:22:17.553Z,32.47
2018-04-13T03:24:43.402Z,35.10
2018-04-13T03:27:09.286Z,26.23
2018-04-13T03:29:35.149Z,19.63
2018-04-13T03:32:01.097Z,34.63
2018-04-13T03:34:27.018Z,24.70
2018-04-13T03:36:56.703Z,26.70
2018-04-13T03:39:22.618Z,28.90
2018-04-13T03:41:48.549Z,23.37
2018-04-13T03:44:14.451Z,20.63
2018-04-13T03:46:40.290Z,22.53
2018-04-13T03:49:06.965Z,19.70
2018-04-13T03:51:32.830Z,18.40
2018-04-13T03:54:02.449Z,23.07
2018-04-13T03:56:28.343Z,24.12
2018-04-13T03:58:58.021Z,23.90
2018-04-13T04:01:23.850Z,31.48
2018-04-13T04:03:51.665Z,17.90
2018-04-13T04:06:17.602Z,32.83
2018-04-13T04:08:45.582Z,33.27
2018-04-13T04:11:11.447Z,25.23
2018-04-13T04:13:40.995Z,28.93
2018-04-13T04:16:06.882Z,27.25
2018-04-13T04:18:32.746Z,26.47
2018-04-13T04:21:11.126Z,18.23
2018-04-13T04:23:49.556Z,23.87
2018-04-13T04:26:27.889Z,19.62
2018-04-13T04:28:53.787Z,29.17
2018-04-13T04:31:20.478Z,18.25
2018-04-13T04:33:46.333Z,24.60
2018-04-13T04:36:12.282Z,21.30
2018-04-13T04:38:38.158Z,25.57
2018-04-13T04:41:04.010Z,18.40
2018-04-13T04:43:29.883Z,21.40
2018-04-13T04:45:55.742Z,22.53
2018-04-13T04:48:21.600Z,21.20
2018-04-13T04:50:47.520Z,20.57
2018-04-13T04:53:13.366Z,25.67
2018-04-13T04:55:39.242Z,24.90
2018-04-13T04:58:05.137Z,29.07
2018-04-13T05:00:31.106Z,25.90
2018-04-13T05:02:57.000Z,27.30
2018-04-13T05:05:22.845Z,31.37
2018-04-13T05:07:48.769Z,30.20
2018-04-13T05:10:14.606Z,25.87
2018-04-13T05:12:40.466Z,25.87
2018-04-13T05:15:06.357Z,25.70
2018-04-13T05:17:32.244Z,28.13
2018-04-13T05:19:58.228Z,36.00
2018-04-13T05:22:24.106Z,25.50
2018-04-13T05:24:50.049Z,32.87
2018-04-13T05:27:15.910Z,28.30
2018-04-13T05:29:41.789Z,25.43
2018-04-13T05:32:07.705Z,30.03
2018-04-13T05:34:33.586Z,27.17
2018-04-13T05:36:59.454Z,28.10
2018-04-13T05:39:25.349Z,35.07
2018-04-13T05:41:51.202Z,26.97
2018-04-13T05:44:17.948Z,32.70
2018-04-13T05:46:44.010Z,35.70
2018-04-13T05:49:13.154Z,26.40
2018-04-13T05:51:39.062Z,26.85
2018-04-13T05:54:08.681Z,31.63
2018-04-13T05:56:34.577Z,28.58
2018-04-13T05:59:03.497Z,26.83
2018-04-13T06:01:29.386Z,29.98
2018-04-13T06:03:57.133Z,28.70
2018-04-13T06:06:22.998Z,31.35
2018-04-13T06:08:48.880Z,32.27
2018-04-13T06:11:14.757Z,31.63
2018-04-13T06:13:40.685Z,27.97
2018-04-13T06:16:08.059Z,25.70
2018-04-13T06:18:33.985Z,26.48
2018-04-13T06:21:03.061Z,25.20
2018-04-13T06:23:28.949Z,29.60
2018-04-13T06:25:58.046Z,30.40
2018-04-13T06:28:23.909Z,31.10
2018-04-13T06:30:53.190Z,35.00
2018-04-13T06:33:19.076Z,30.27
2018-04-13T06:35:48.540Z,26.20
2018-04-13T06:38:14.418Z,34.03
2018-04-13T06:40:42.128Z,36.47
2018-04-13T06:43:07.990Z,26.45
2018-04-13T06:45:33.878Z,24.23
2018-04-13T06:47:59.747Z,25.03
2018-04-13T06:50:25.876Z,28.60
2018-04-13T06:52:53.246Z,25.02
2018-04-13T06:55:19.132Z,23.38
2018-04-13T06:57:47.896Z,19.17
2018-04-13T07:00:14.260Z,19.90
2018-04-13T07:02:43.351Z,15.57
2018-04-13T07:05:09.229Z,16.65
2018-04-13T07:07:38.314Z,19.60
2018-04-13T07:10:04.180Z,16.35
2018-04-13T07:12:32.140Z,16.30
2018-04-13T07:14:58.049Z,15.95
2018-04-13T07:17:27.345Z,12.13
2018-04-13T07:19:53.200Z,12.82
2018-04-13T07:22:19.086Z,13.00
2018-04-13T07:24:45.000Z,12.20
2018-04-13T07:27:10.978Z,13.13
2018-04-13T07:29:40.203Z,10.93
2018-04-13T07:32:06.126Z,18.90
2018-04-13T07:34:35.521Z,9.43
2018-04-13T07:37:01.126Z,10.17
2018-04-13T07:39:28.145Z,9.10
2018-04-13T07:41:54.063Z,11.40
2018-04-13T07:44:23.331Z,10.70
2018-04-13T07:46:49.258Z,9.80
2018-04-13T07:49:18.395Z,7.43
2018-04-13T07:51:44.273Z,9.67
2018-04-13T07:54:12.435Z,13.57
2018-04-13T07:56:38.285Z,16.40
2018-04-13T07:59:04.161Z,12.27
2018-04-13T08:01:30.107Z,9.20
2018-04-13T08:03:56.839Z,14.40
2018-04-13T08:06:25.716Z,13.13
2018-04-13T08:08:51.616Z,8.00
2018-04-13T08:11:18.940Z,17.17
2018-04-13T08:13:44.643Z,15.60
2018-04-13T08:16:14.304Z,17.97
2018-04-13T08:18:40.224Z,10.30
2018-04-13T08:21:08.565Z,8.20
2018-04-13T08:23:34.484Z,13.60
2018-04-13T08:26:03.757Z,11.60
2018-04-13T08:28:29.665Z,7.60
2018-04-13T08:30:58.962Z,8.40
2018-04-13T08:33:24.859Z,9.17
2018-04-13T08:35:50.763Z,8.60
2018-04-13T08:38:16.642Z,7.77
2018-04-13T08:40:42.586Z,9.30
2018-04-13T08:43:09.379Z,7.63
2018-04-13T08:45:35.390Z,10.70
2018-04-13T08:48:05.045Z,11.43
2018-04-13T08:50:30.977Z,8.10
2018-04-13T08:52:59.857Z,9.70
2018-04-13T08:55:25.791Z,12.50
2018-04-13T08:57:55.238Z,10.20
2018-04-13T09:00:21.199Z,6.93
2018-04-13T09:02:48.258Z,4.90
2018-04-13T09:05:14.151Z,6.82
2018-04-13T09:07:43.588Z,4.20
2018-04-13T09:10:09.498Z,4.27
2018-04-13T09:12:35.365Z,5.10
2018-04-13T09:15:01.331Z,3.90
2018-04-13T09:17:27.302Z,4.68
2018-04-13T09:19:56.437Z,3.50
2018-04-13T09:22:22.383Z,3.50
2018-04-13T09:24:50.015Z,3.80
2018-04-13T09:27:15.923Z,5.78
2018-04-13T09:29:44.141Z,3.20
2018-04-13T09:32:10.056Z,3.40
2018-04-13T09:34:39.693Z,2.47
2018-04-13T09:37:05.659Z,4.20
2018-04-13T09:39:33.547Z,6.00
2018-04-13T09:41:59.433Z,7.22
2018-04-13T09:44:29.124Z,4.20
2018-04-13T09:46:55.110Z,4.60
2018-04-13T09:49:20.990Z,15.93
2018-04-13T09:51:46.899Z,4.10
2018-04-13T09:54:12.791Z,4.63
2018-04-13T09:56:40.437Z,3.90
2018-04-13T09:59:06.383Z,7.07
2018-04-13T10:01:39.053Z,5.87
2018-04-13T10:04:04.975Z,5.78
2018-04-13T10:06:30.872Z,8.17
2018-04-13T10:08:56.776Z,6.90
2018-04-13T10:11:24.600Z,4.87
2018-04-13T10:13:50.487Z,5.18
2018-04-13T10:16:20.223Z,4.93
2018-04-13T10:18:46.135Z,5.70
2018-04-13T10:21:14.034Z,4.60
2018-04-13T10:23:39.906Z,9.00
2018-04-13T10:26:05.815Z,5.67
2018-04-13T10:28:31.751Z,7.40
2018-04-13T10:30:57.675Z,7.77
2018-04-13T10:33:24.989Z,7.80
2018-04-13T10:35:50.852Z,5.40
2018-04-13T10:38:19.630Z,6.43
2018-04-13T10:40:45.518Z,8.65
2018-04-13T10:43:14.241Z,14.33
2018-04-13T10:45:40.097Z,4.45
2018-04-13T10:48:09.152Z,6.70
2018-04-13T10:50:35.014Z,4.97
2018-04-13T10:53:03.895Z,6.10
2018-04-13T10:55:29.780Z,7.32
2018-04-13T10:57:58.775Z,5.53
2018-04-13T11:00:24.651Z,4.28
2018-04-13T11:02:50.575Z,7.17
2018-04-13T11:05:16.449Z,5.77
2018-04-13T11:07:42.340Z,11.60
2018-04-13T11:10:11.620Z,6.57
2018-04-13T11:12:37.617Z,7.97
2018-04-13T11:15:06.739Z,7.93
2018-04-13T11:17:32.683Z,5.55
2018-04-13T11:20:01.603Z,8.00
2018-04-13T11:22:27.495Z,6.70
2018-04-13T11:24:54.734Z,3.90
2018-04-13T11:27:20.649Z,5.12
2018-04-13T11:29:50.302Z,7.80
2018-04-13T11:32:16.203Z,5.97
2018-04-13T11:34:45.551Z,4.87
2018-04-13T11:37:11.447Z,4.15
2018-04-13T11:39:37.389Z,4.83
2018-04-13T11:42:03.346Z,4.10
2018-04-13T11:44:29.255Z,5.97
2018-04-13T11:46:55.785Z,4.83
2018-04-13T11:49:21.693Z,3.90
2018-04-13T11:51:51.043Z,9.07
2018-04-13T11:54:16.944Z,7.50
2018-04-13T11:56:46.590Z,6.13
2018-04-13T11:59:12.459Z,5.40
2018-04-13T12:01:39.735Z,5.37
2018-04-13T12:04:07.862Z,6.00
2018-04-13T12:06:34.691Z,6.50
2018-04-13T12:09:00.587Z,4.62
2018-04-13T12:11:30.057Z,8.27
2018-04-13T12:13:56.310Z,5.28
2018-04-13T12:16:22.184Z,8.30
2018-04-13T12:18:48.115Z,8.17
2018-04-13T12:21:14.009Z,2.50
2018-04-13T12:23:41.068Z,6.73
2018-04-13T12:26:07.025Z,7.80
2018-04-13T12:28:36.179Z,4.53
2018-04-13T12:31:02.087Z,2.37
2018-04-13T12:33:31.618Z,2.23
2018-04-13T12:35:57.600Z,5.30
2018-04-13T12:38:26.847Z,4.30
2018-04-13T12:40:52.723Z,6.68
2018-04-13T12:43:20.038Z,4.73
2018-04-13T12:45:45.936Z,4.80
2018-04-13T12:48:11.865Z,3.77
2018-04-13T12:50:37.872Z,4.97
2018-04-13T12:53:04.463Z,3.42
2018-04-13T12:55:30.360Z,5.85
2018-04-13T12:57:56.227Z,4.50
2018-04-13T13:00:22.140Z,10.83
2018-04-13T13:02:48.082Z,5.60
2018-04-13T13:05:13.993Z,5.37
2018-04-13T13:07:39.895Z,4.27
2018-04-13T13:10:05.806Z,7.03
2018-04-13T13:12:31.691Z,6.00
2018-04-13T13:15:01.228Z,9.10
2018-04-13T13:17:27.206Z,5.30
2018-04-13T13:19:54.975Z,6.27
2018-04-13T13:22:21.440Z,9.00
2018-04-13T13:24:51.227Z,10.80
2018-04-13T13:27:17.234Z,9.82
2018-04-13T13:29:43.151Z,10.35
2018-04-13T13:32:09.055Z,8.17
2018-04-13T13:34:34.964Z,5.00
2018-04-13T13:37:01.871Z,7.60
2018-04-13T13:39:27.786Z,5.20
2018-04-13T13:41:57.223Z,7.30
2018-04-13T13:44:23.130Z,9.55
2018-04-13T13:46:50.836Z,10.43
2018-04-13T13:49:16.740Z,7.07
2018-04-13T13:51:45.728Z,13.70
2018-04-13T13:54:11.680Z,5.10
2018-04-13T13:56:40.949Z,7.17
2018-04-13T13:59:06.859Z,8.43
2018-04-13T14:01:35.884Z,12.93
2018-04-13T14:04:01.820Z,7.82
2018-04-13T14:06:27.745Z,6.20
2018-04-13T14:08:53.661Z,8.93
2018-04-13T14:11:19.548Z,5.47
2018-04-13T14:13:47.419Z,9.00
2018-04-13T14:16:13.302Z,6.82
2018-04-13T14:18:42.484Z,8.20
2018-04-13T14:21:08.396Z,7.47
2018-04-13T14:23:38.121Z,8.73
2018-04-13T14:26:04.010Z,14.30
2018-04-13T14:28:31.055Z,9.97
2018-04-13T14:30:57.861Z,10.48
2018-04-13T14:33:26.038Z,10.20
2018-04-13T14:35:52.017Z,8.65
2018-04-13T14:38:21.842Z,8.07
2018-04-13T14:40:47.869Z,14.10
2018-04-13T14:43:13.957Z,8.15
2018-04-13T14:45:39.870Z,6.80
2018-04-13T14:48:05.807Z,10.67
2018-04-13T14:50:32.150Z,5.03
2018-04-13T14:52:58.031Z,9.25
2018-04-13T14:55:26.856Z,5.73
2018-04-13T14:57:52.778Z,5.95
2018-04-13T15:00:21.800Z,6.30
2018-04-13T15:02:52.640Z,7.25
2018-04-13T15:05:18.551Z,4.55
2018-04-13T15:07:44.510Z,6.80
2018-04-13T15:10:11.716Z,6.00
2018-04-13T15:12:37.615Z,5.95
2018-04-13T15:15:06.779Z,4.20
2018-04-13T15:17:32.665Z,6.15
2018-04-13T15:19:58.554Z,3.70
2018-04-13T15:22:24.501Z,4.83
2018-04-13T15:24:50.416Z,4.87
2018-04-13T15:27:17.866Z,5.23
2018-04-13T15:29:43.746Z,4.22
2018-04-13T15:32:12.771Z,6.20
2018-04-13T15:34:38.751Z,6.70
2018-04-13T15:37:07.861Z,3.40
2018-04-13T15:39:33.764Z,2.50
2018-04-13T15:42:01.766Z,2.23
2018-04-13T15:44:27.666Z,2.72
2018-04-13T15:46:56.884Z,7.63
2018-04-13T15:49:22.763Z,1.70
2018-04-13T15:51:51.695Z,2.20
2018-04-13T15:54:17.629Z,3.17
2018-04-13T15:56:43.497Z,3.63
2018-04-13T15:59:09.403Z,5.63
2018-04-13T16:01:35.572Z,3.50
2018-04-13T16:04:02.740Z,2.30
2018-04-13T16:06:28.626Z,3.17
2018-04-13T16:08:57.344Z,2.20
2018-04-13T16:11:23.243Z,1.77
2018-04-13T16:13:52.093Z,2.50
2018-04-13T16:16:18.001Z,3.53
2018-04-13T16:18:46.849Z,3.73
2018-04-13T16:21:12.740Z,8.50
2018-04-13T16:23:42.611Z,13.83
2018-04-13T16:26:08.519Z,3.00
2018-04-13T16:28:36.235Z,2.90
2018-04-13T16:31:02.119Z,4.27
2018-04-13T16:33:28.011Z,9.13
2018-04-13T16:35:53.946Z,6.70
2018-04-13T16:38:19.868Z,5.23
2018-04-13T16:40:47.939Z,3.07
2018-04-13T16:43:13.876Z,3.50
2018-04-13T16:45:42.721Z,4.13
2018-04-13T16:48:08.660Z,5.53
2018-04-13T16:50:38.467Z,2.30
2018-04-13T16:53:04.366Z,2.30
2018-04-13T16:55:33.968Z,2.17
2018-04-13T16:57:59.860Z,1.20
2018-04-13T17:00:26.672Z,1.53
2018-04-13T17:02:52.594Z,2.93
2018-04-13T17:05:21.625Z,1.83
2018-04-13T17:07:47.554Z,5.67
2018-04-13T17:10:13.441Z,2.50
2018-04-13T17:12:39.831Z,1.13
2018-04-13T17:15:05.723Z,1.53
2018-04-13T17:17:33.565Z,3.50
2018-04-13T17:19:59.485Z,1.80
2018-04-13T17:22:28.573Z,2.00
2018-04-13T17:24:54.503Z,1.53
2018-04-13T17:27:24.408Z,7.00
2018-04-13T17:29:50.307Z,2.90
2018-04-13T17:32:19.362Z,2.80
2018-04-13T17:34:45.292Z,2.10
2018-04-13T17:37:12.003Z,1.57
2018-04-13T17:39:37.922Z,3.85
2018-04-13T17:42:06.791Z,1.50
2018-04-13T17:44:32.666Z,7.37
2018-04-13T17:46:58.635Z,2.70
2018-04-13T17:49:24.531Z,2.30
2018-04-13T17:51:50.422Z,2.13
2018-04-13T17:54:19.524Z,1.33
2018-04-13T17:56:45.555Z,4.47
2018-04-13T17:59:13.387Z,2.75
2018-04-13T18:01:39.290Z,1.90
2018-04-13T18:04:08.321Z,1.57
2018-04-13T18:06:34.272Z,1.67
2018-04-13T18:09:03.094Z,5.47
2018-04-13T18:11:29.005Z,5.85
2018-04-13T18:13:57.771Z,6.33
2018-04-13T18:16:23.700Z,3.20
2018-04-13T18:18:53.564Z,2.20
2018-04-13T18:21:19.491Z,6.47
2018-04-13T18:23:45.404Z,3.13
2018-04-13T18:26:11.306Z,2.40
2018-04-13T18:28:37.175Z,3.50
2018-04-13T18:31:04.131Z,4.33
2018-04-13T18:33:30.022Z,2.00
2018-04-13T18:35:59.444Z,2.97
2018-04-13T18:38:25.397Z,4.22
2018-04-13T18:40:55.113Z,5.00
2018-04-13T18:43:21.015Z,3.10
2018-04-13T18:45:48.018Z,2.87
2018-04-13T18:48:14.424Z,11.40
2018-04-13T18:50:44.017Z,4.22
2018-04-13T18:53:09.920Z,3.58
2018-04-13T18:55:37.567Z,2.90
2018-04-13T18:58:03.505Z,1.95
2018-04-13T19:00:29.424Z,2.80
2018-04-13T19:02:55.309Z,2.40
2018-04-13T19:05:22.411Z,2.43
2018-04-13T19:07:49.446Z,2.83
2018-04-13T19:10:15.347Z,5.90
2018-04-13T19:12:43.831Z,2.10
2018-04-13T19:15:09.763Z,2.03
2018-04-13T19:17:38.682Z,4.57
2018-04-13T19:20:04.658Z,5.85
2018-04-13T19:22:33.635Z,3.07
2018-04-13T19:24:59.506Z,5.82
2018-04-13T19:27:28.879Z,5.67
2018-04-13T19:29:54.748Z,4.62
2018-04-13T19:32:23.740Z,4.00
2018-04-13T19:34:49.651Z,6.45
2018-04-13T19:37:15.535Z,3.93
2018-04-13T19:39:41.438Z,4.27
2018-04-13T19:42:07.325Z,5.90
2018-04-13T19:44:34.597Z,7.53
2018-04-13T19:47:00.516Z,6.62
2018-04-13T19:49:29.791Z,10.80
2018-04-13T19:51:55.697Z,8.48
2018-04-13T19:54:25.520Z,6.40
2018-04-13T19:56:51.458Z,6.78
2018-04-13T19:59:19.256Z,8.97
2018-04-13T20:01:45.178Z,6.30
2018-04-13T20:04:14.075Z,6.67
2018-04-13T20:06:39.961Z,7.12
2018-04-13T20:09:09.141Z,13.17
2018-04-13T20:11:35.052Z,8.18
2018-04-13T20:14:00.945Z,4.73
2018-04-13T20:16:26.888Z,6.53
2018-04-13T20:18:52.772Z,7.10
2018-04-13T20:21:20.616Z,4.47
2018-04-13T20:23:46.521Z,4.55
2018-04-13T20:26:15.385Z,7.07
2018-04-13T20:28:42.973Z,6.75
2018-04-13T20:31:09.037Z,5.55
2018-04-13T20:33:34.956Z,5.30
2018-04-13T20:36:04.568Z,9.03
2018-04-13T20:38:30.522Z,5.57
2018-04-13T20:40:59.632Z,8.10
2018-04-13T20:43:26.591Z,6.18
2018-04-13T20:45:53.259Z,11.00
2018-04-13T20:48:19.156Z,8.48
2018-04-13T20:50:45.094Z,7.10
2018-04-13T20:53:11.028Z,5.47
2018-04-13T20:55:36.948Z,8.67
2018-04-13T20:58:06.656Z,4.07
2018-04-13T21:00:32.514Z,4.50
2018-04-13T21:03:01.632Z,5.13
2018-04-13T21:05:27.537Z,7.65
2018-04-13T21:07:54.325Z,5.20
2018-04-13T21:10:20.199Z,7.80
2018-04-13T21:12:49.152Z,6.63
2018-04-13T21:15:15.066Z,7.00
2018-04-13T21:17:45.015Z,4.13
2018-04-13T21:20:25.899Z,5.05
2018-04-13T21:22:52.059Z,6.20
2018-04-13T21:25:17.948Z,4.70
2018-04-13T21:27:43.873Z,5.03
2018-04-13T21:30:09.810Z,7.00
2018-04-13T21:32:35.839Z,6.23
2018-04-13T21:35:01.748Z,5.80
2018-04-13T21:37:27.643Z,5.53
2018-04-13T21:39:53.535Z,5.70
2018-04-13T21:42:19.463Z,4.53
2018-04-13T21:44:45.372Z,7.73
2018-04-13T21:47:11.272Z,8.43
2018-04-13T21:49:37.176Z,5.10
2018-04-13T21:52:03.137Z,4.43
2018-04-13T21:54:29.063Z,7.50
2018-04-13T21:56:54.974Z,5.20
2018-04-13T21:59:23.699Z,10.43
2018-04-13T22:01:49.627Z,5.82
2018-04-13T22:04:15.558Z,4.70
2018-04-13T22:06:41.460Z,10.40
2018-04-13T22:09:07.367Z,9.87
2018-04-13T22:11:35.680Z,8.67
2018-04-13T22:14:13.851Z,10.15
2018-04-13T22:16:39.739Z,6.82
2018-04-13T22:19:05.642Z,6.57
2018-04-13T22:21:31.553Z,14.87
2018-04-13T22:23:57.477Z,16.30
2018-04-13T22:26:23.400Z,11.90
2018-04-13T22:28:49.314Z,6.10
2018-04-13T22:31:15.214Z,15.13
2018-04-13T22:33:41.123Z,9.50
2018-04-13T22:36:10.804Z,8.37
2018-04-13T22:38:36.777Z,10.48
2018-04-13T22:41:02.616Z,9.07
2018-04-13T22:43:28.494Z,6.10
2018-04-13T22:45:54.411Z,9.37
2018-04-13T22:48:21.330Z,8.73
2018-04-13T22:50:47.303Z,8.73
2018-04-13T22:53:16.739Z,7.63
2018-04-13T22:55:42.639Z,16.05
2018-04-13T22:58:10.390Z,9.60
2018-04-13T23:00:36.307Z,7.62
2018-04-13T23:03:05.449Z,13.00
2018-04-13T23:05:31.334Z,9.55
2018-04-13T23:08:00.021Z,11.17
2018-04-13T23:10:25.919Z,9.95
2018-04-13T23:12:55.756Z,11.90
2018-04-13T23:15:21.686Z,7.93
2018-04-13T23:17:47.567Z,10.30
2018-04-13T23:20:13.487Z,9.13
2018-04-13T23:22:39.379Z,10.97
2018-04-13T23:25:06.759Z,11.53
2018-04-13T23:27:32.648Z,9.45
2018-04-13T23:30:01.436Z,16.80
2018-04-13T23:32:27.374Z,7.97
2018-04-13T23:34:55.826Z,11.47
2018-04-13T23:37:21.717Z,8.68
2018-04-13T23:39:50.786Z,9.30
2018-04-13T23:42:16.678Z,11.65
2018-04-13T23:44:46.383Z,7.87
2018-04-13T23:47:12.284Z,11.10
2018-04-13T23:49:39.988Z,11.40
2018-04-13T23:52:05.887Z,8.55
2018-04-13T23:54:31.791Z,9.13
2018-04-13T23:56:57.721Z,8.57
2018-04-13T23:59:23.632Z,8.33
